Ana Sayfa
METAR-TAF:

METAR-TAF

Havaalanları :

Cenevre, İsviçre

Cenevre Havalimanı

Enlem: 46-15N, Boylam: 006-08E, yükseklik: 420 m

Güncel hava durumu gözlemi

Rapor saat 07:20 UTC de 15 dakika önce yapıldı.
Rüzgar değişken yönden 2 kt
Sıcaklık 16°C
Nem 59%
Basınç 1022 hPa
Görüş mesafesi 10 km veya daha fazla
1500 m altında bulut yok ve kümülonimbus yok

METAR: LSGG 210720Z VRB02KT CAVOK 16/08 Q1022 NOSIG

Saat: 09:35 (07:35 UTC)

Tahmin

Rapor saat 05:25 UTC de 2 saat ve 10 dakika önce yapıldı.
Ayın 21'si saat 06 UTC'den ayın 22'si saat 12 UTC'ye kadar geçerli Tahmin
Rüzgar değişken yönden 3 kt
Görüş mesafesi 10 km veya daha fazla
1500 m altında bulut yok ve kümülonimbus yok
Geçici
ayın 21'si saat 12 UTC'den ayın 21'si saat 18 UTC'ye kadar
Rüzgar kuzeydoğudan 6 kt

TAF: LSGG 210525Z 2106/2212 VRB03KT CAVOK TX27/2115Z TN09/2106Z TN10/2205Z TEMPO 2112/2118 05006KT

4.000'den fazla havaalanı için hava durumu gözlemleri ve tahminleri (METAR ve TAF raporları).

Kullanılabilir istasyonlar harita üzerinde sarı ve kırmızı noktalarla gösterilir.

İstasyonun adını görmek için fareyi noktanın üzerinde gezdirin.

Sonrasında hava gözlem ve tahminlerini görmek için tıklayın.

Haritayı değiştirmek için: yaklaştırmak için siyah artı işaretli yeşil düğmeye ve uzaklaştırmak için de eksi işaretli düğmeye hızla tıklayın; bitişik haritalar için yeşil okları kullanın.


METAR-TAF: